Aérodrome :
LOGIN :

S'inscrire | Disclaimer

   EN    FR    IT 

 










Légende :    VFR   VFR Marginal   IFR   IFR Intensif   IFR Très Intensif
Visi : 
Plafond : 
>= 8 km
>= 3000ft
5 à 8 km
1000 à 3000 ft
1500m à 5 km
500 à 1000 ft
800 à 1500m
200 à 500 ft
< 800m
< 200 ft
Symboles :   Orages  Brouillard  Fortes neiges  Fortes précipitations  Vent > 20 kt
SIGMETs :   Divers  Orages  Givrage  Turbulence  Onde Orograph.  Cendres Volcan.







- Altitude de l'aérodrome : 74 ft
- Code IATA : MRS
- Voir les cartes d'approche


LFML - Marseille / Marignane

DERNIER METAR :
  • 241700Z AUTO 18007KT 130V210 CAVOK 24/13 Q1016 NOSIG

METARs EXPIRÉS :
  • 241630Z AUTO 18005KT 120V220 CAVOK 25/13 Q1016 NOSIG
  • 241600Z AUTO 19008KT CAVOK 26/13 Q1016 NOSIG
  • 241530Z AUTO 16006KT 130V190 CAVOK 27/13 Q1016 NOSIG
  • 241500Z AUTO 17008KT CAVOK 27/13 Q1017 NOSIG
  • 241430Z AUTO 17008KT 140V210 CAVOK 27/14 Q1017 NOSIG

TAF TAF LFML
Valide du 24 à 15h jusqu'au 25 à 21h UTC


241400Z 2415/2521 VRB05KT CAVOK TX29/2512Z TN16/2503Z
ATIS : +33 4 42 31 15 15
Pas de NOTAMs connus pour ce terrain.



MET'MAP, la Météo Aéronautique d'un coup d'oeil ! - Copyright ORBIFLY Décembre 2007 - Disclaimer

ORBIFLY MET'MAP TEAM :

Programmation & Développement : Alexandra Zaïnal
Conception & Développement : Baudouin d'Aumeries
Co-Programmation & Développement : Marc-Olivier Méhu
Soutien technique & logistique : Manuel Goepfert

Contact : metmap@orbifly.com




SOURCES & CREDITS :

   NOAA